This is the latest recevied weather packets stored in our database for station/object KE0SWK-13. If no packets are shown the sender has not sent any weather packets the latest 10 day(s).
| Time | Temp. | Humidity | Pressure | Rain* | Wind** | Luminosity | Snow |
|---|---|---|---|---|---|---|---|
| 1777673426 | 18.89° C | 34% | 1018.2 hPa | 0 mm | - | - | - |
| 1777668626 | 19.44° C | 35% | 1019.6 hPa | 0 mm | - | - | - |
| 1777667420 | 20° C | 36% | 1020 hPa | 0 mm | - | - | - |
| 1777664427 | 19.44° C | 31% | 1020.6 hPa | 0 mm | - | - | - |
| 1777663224 | 20° C | 35% | 1020.8 hPa | 0 mm | - | - | - |
| 1777658428 | 20° C | 32% | 1020.9 hPa | 0 mm | - | - | - |
| 1777652422 | 16.67° C | 38% | 1021.5 hPa | 0 mm | - | - | - |
| 1777645842 | 16.67° C | 45% | 1021.5 hPa | 0 mm | - | - | - |
| 1777644630 | 16.11° C | 47% | 1021.8 hPa | 0 mm | - | - | - |
| 1777643430 | 15.56° C | 52% | 1021.8 hPa | 0 mm | - | - | - |
| 1777639833 | - | - | - | 0 mm | - | - | - |
| 1777638034 | - | - | - | 0 mm | - | - | - |
| 1777633530 | 2.22° C | 94% | 1020.9 hPa | 0 mm | - | - | - |
| 1777630527 | 3.89° C | 92% | 1020.8 hPa | 0 mm | - | - | - |
| 1777628729 | 4.44° C | 89% | 1020.8 hPa | 0 mm | - | - | - |
| 1777626340 | 5.56° C | 83% | 1020.9 hPa | 0 mm | - | - | - |
| 1777620925 | 6.67° C | 80% | 1021 hPa | 0 mm | - | - | - |
| 1777609524 | 11.11° C | 70% | 1020.5 hPa | 0 mm | - | - | - |
| 1777608965 | 11.67° C | 69% | 1020.5 hPa | 0 mm | - | - | - |
| 1777605949 | 12.22° C | 70% | 1020.4 hPa | 0 mm | - | - | - |
| 1777603523 | 12.78° C | 71% | 1019.9 hPa | 0 mm | - | - | - |
| 1777602340 | 12.78° C | 76% | 1019.4 hPa | 0.25 mm | - | - | - |
| 1777601719 | 12.78° C | 83% | 1019.2 hPa | 0.25 mm | - | - | - |
| 1777598733 | 13.33° C | 75% | 1017.9 hPa | 1.02 mm | - | - | - |
| 1777592127 | 16.67° C | 58% | 1017.1 hPa | 0.25 mm | - | - | - |
* Rain latest hour (hover to see other rain measurements)
** Current wind speed in m/s (hover to see current wind gust speed)